Goodfellow Terrace, Missouri
Current Conditions -  °F | °C
As of 2:51 AM on Saturday 20 Dec 2014 (Local Time) from KSTL Reporting Station
Overcast Overcast  
Wind Chill:   Ceiling: 2800
Heat Index:   Visibility: 8mi
Dew Point: -3°   Wind: 6mph
Humidity: 67%   Direction: 120°ESE
Pressure: 30.26"   Gusts: NA
Location:  38.694°N, 90.256°W
Report Text: KSTL 200851Z 12005KT 8SM OVC028 02/M03 A3026 RMK AO2 SLP256 T00221033 55005
Loading
Personal Weather Stations






























Interactive Weather Map New forecast layout! Learn more

10-Day Weather Forecast

Advertisements
Track Severe Weather on mobile